Time;durP1;ratioP1;P1;durP2;ratioP2;P2;SDS_P1;SDS_P2;PMS_P1;PMS_P2;Temp;Humidity;BMP_temperature;BMP_pressure;BME280_temperature;BME280_humidity;BME280_pressure;Samples;Min_cycle;Max_cycle;Signal;HPM_P1;HPM_P2
2022/08/15 00:07:43;;;;;;;4.07;2.22;;;;;;;;;;21242154;27;20066;-55
2022/08/15 00:17:53;;;;;;;2.40;2.10;;;;;;;;;;21258774;27;20532;-57
2022/08/15 00:27:55;;;;;;;3.80;2.17;;;;;;;;;;21257391;27;20047;-57
2022/08/15 00:37:57;;;;;;;2.80;2.28;;;;;;;;;;21257013;27;20054;-58
2022/08/15 00:58:29;;;;;;;3.35;2.20;;;;;;;;;;21255779;27;20391;-57
2022/08/15 01:08:41;;;;;;;3.28;2.53;;;;;;;;;;21255246;27;20413;-57
2022/08/15 01:18:43;;;;;;;3.22;2.60;;;;;;;;;;21253699;27;20447;-57
2022/08/15 01:28:48;;;;;;;7.68;5.43;;;;;;;;;;21253211;27;20077;-57
2022/08/15 01:39:10;;;;;;;5.90;5.00;;;;;;;;;;21252027;27;20122;-56
2022/08/15 01:49:25;;;;;;;7.13;6.43;;;;;;;;;;21250831;27;20043;-56
2022/08/15 01:59:38;;;;;;;6.65;5.22;;;;;;;;;;21250424;27;20047;-56
2022/08/15 02:09:43;;;;;;;7.35;6.20;;;;;;;;;;21250225;27;20129;-57
2022/08/15 02:19:49;;;;;;;7.15;6.45;;;;;;;;;;21249463;27;20050;-56
2022/08/15 02:29:55;;;;;;;7.88;6.75;;;;;;;;;;21248455;27;20043;-57
2022/08/15 02:39:59;;;;;;;10.70;6.45;;;;;;;;;;21247716;27;20055;-57
2022/08/15 02:50:02;;;;;;;8.75;7.35;;;;;;;;;;21247537;28;20547;-57
2022/08/15 03:00:09;;;;;;;10.05;7.78;;;;;;;;;;21247136;28;20475;-57
2022/08/15 03:10:11;;;;;;;10.05;8.18;;;;;;;;;;21247017;28;20125;-58
2022/08/15 03:20:13;;;;;;;8.82;7.75;;;;;;;;;;21247342;28;20429;-55
2022/08/15 03:30:16;;;;;;;9.13;7.07;;;;;;;;;;21245913;28;20047;-57
2022/08/15 03:40:19;;;;;;;7.70;6.90;;;;;;;;;;21245878;27;20419;-57
2022/08/15 03:50:22;;;;;;;9.27;7.28;;;;;;;;;;21258237;27;20371;-57
2022/08/15 04:00:26;;;;;;;7.70;6.90;;;;;;;;;;21259375;27;20050;-61
2022/08/15 04:10:27;;;;;;;8.35;6.22;;;;;;;;;;21259244;27;20051;-57
2022/08/15 04:20:30;;;;;;;7.30;6.60;;;;;;;;;;21258453;27;20074;-56
2022/08/15 04:30:32;;;;;;;;;;;;;;;;;;21258338;27;20050;-57
2022/08/15 04:40:34;;;;;;;8.13;6.68;;;;;;;;;;21256060;27;20318;-55
2022/08/15 04:50:38;;;;;;;6.78;5.82;;;;;;;;;;21255672;27;20077;-58
2022/08/15 05:00:41;;;;;;;8.60;6.22;;;;;;;;;;21253852;27;20544;-57
2022/08/15 05:10:45;;;;;;;7.57;6.72;;;;;;;;;;21253852;27;20096;-57
2022/08/15 05:20:47;;;;;;;8.50;5.75;;;;;;;;;;21252768;27;20043;-57
2022/08/15 05:30:50;;;;;;;7.53;5.60;;;;;;;;;;21253236;27;20081;-57
2022/08/15 05:41:01;;;;;;;9.13;5.35;;;;;;;;;;21251372;27;20158;-57
2022/08/15 05:51:12;;;;;;;6.68;4.45;;;;;;;;;;21250413;27;20047;-58
2022/08/15 06:01:14;;;;;;;16.25;5.60;;;;;;;;;;21250335;27;20453;-57
2022/08/15 06:11:21;;;;;;;7.17;4.63;;;;;;;;;;21249624;27;20058;-58
2022/08/15 06:21:45;;;;;;;9.05;5.00;;;;;;;;;;21249454;27;20050;-57
2022/08/15 06:31:53;;;;;;;7.35;3.88;;;;;;;;;;21249173;27;20088;-55
2022/08/15 06:41:59;;;;;;;6.55;4.00;;;;;;;;;;21248104;27;20122;-56
2022/08/15 06:52:01;;;;;;;5.15;3.70;;;;;;;;;;21247255;28;20086;-56
2022/08/15 07:02:03;;;;;;;4.72;4.20;;;;;;;;;;21247050;28;20047;-55
2022/08/15 07:12:19;;;;;;;5.03;3.80;;;;;;;;;;21246963;28;20115;-57
2022/08/15 07:22:21;;;;;;;8.98;5.03;;;;;;;;;;21254250;27;20069;-55
2022/08/15 07:32:26;;;;;;;6.93;5.28;;;;;;;;;;21261165;27;20152;-56
2022/08/15 07:42:28;;;;;;;7.55;4.95;;;;;;;;;;21260495;27;20503;-58
2022/08/15 07:52:30;;;;;;;;;;;;;;;;;;21261110;27;20051;-57
2022/08/15 08:02:41;;;;;;;7.90;5.23;;;;;;;;;;21259504;27;19965;-55
2022/08/15 08:12:43;;;;;;;10.13;7.03;;;;;;;;;;21258428;27;20092;-59
2022/08/15 08:22:55;;;;;;;7.53;5.00;;;;;;;;;;21257126;27;20054;-57
2022/08/15 08:32:57;;;;;;;5.38;4.82;;;;;;;;;;21250428;27;20048;-54
2022/08/15 08:43:04;;;;;;;7.88;5.57;;;;;;;;;;21228778;27;20101;-56
2022/08/15 08:53:33;;;;;;;8.40;5.40;;;;;;;;;;21244251;27;20078;-56
2022/08/15 09:03:39;;;;;;;8.38;6.57;;;;;;;;;;20906394;28;20045;-56
2022/08/15 09:13:43;;;;;;;14.75;5.63;;;;;;;;;;20889449;28;20044;-56
2022/08/15 09:23:46;;;;;;;6.40;5.57;;;;;;;;;;20906483;28;20053;-55
2022/08/15 09:34:05;;;;;;;7.28;5.43;;;;;;;;;;21026694;28;20048;-56
2022/08/15 09:44:20;;;;;;;6.25;4.68;;;;;;;;;;21164060;28;20051;-58
2022/08/15 09:54:24;;;;;;;9.13;5.40;;;;;;;;;;21164216;28;20126;-55
2022/08/15 10:04:45;;;;;;;7.25;5.10;;;;;;;;;;21162923;28;20051;-56
2022/08/15 10:14:53;;;;;;;8.55;5.22;;;;;;;;;;21161864;28;20063;-55
2022/08/15 10:25:15;;;;;;;6.90;4.88;;;;;;;;;;21161129;28;20047;-56
2022/08/15 10:35:20;;;;;;;6.32;4.75;;;;;;;;;;21160803;28;20549;-56
2022/08/15 10:45:27;;;;;;;5.75;4.20;;;;;;;;;;21159992;28;20104;-57
2022/08/15 10:55:34;;;;;;;6.25;4.72;;;;;;;;;;21167366;28;20055;-58
2022/08/15 11:05:36;;;;;;;6.82;4.03;;;;;;;;;;21176643;28;20077;-59
2022/08/15 11:15:46;;;;;;;7.07;3.75;;;;;;;;;;21176130;28;20054;-58
2022/08/15 11:25:55;;;;;;;4.83;3.73;;;;;;;;;;21174981;28;20380;-57
2022/08/15 11:36:24;;;;;;;5.93;4.20;;;;;;;;;;21175358;28;20040;-56
2022/08/15 11:46:27;;;;;;;3.58;3.28;;;;;;;;;;21171157;28;20059;-57
2022/08/15 11:56:50;;;;;;;5.70;3.95;;;;;;;;;;21172922;28;20047;-56
2022/08/15 12:06:54;;;;;;;4.85;3.53;;;;;;;;;;21171293;28;20130;-56
2022/08/15 12:16:57;;;;;;;7.05;4.72;;;;;;;;;;21172601;28;20438;-56
2022/08/15 12:27:01;;;;;;;4.72;3.65;;;;;;;;;;21170566;28;20100;-57
2022/08/15 12:37:05;;;;;;;6.13;4.13;;;;;;;;;;21169750;28;20048;-56
2022/08/15 12:47:07;;;;;;;5.05;3.55;;;;;;;;;;21169982;28;20086;-58
2022/08/15 12:57:09;;;;;;;6.80;4.50;;;;;;;;;;21168388;28;20472;-57
2022/08/15 13:07:12;;;;;;;7.90;3.97;;;;;;;;;;21167968;28;20415;-57
2022/08/15 13:17:15;;;;;;;5.57;4.57;;;;;;;;;;21165283;28;20054;-56
2022/08/15 13:27:17;;;;;;;4.57;3.88;;;;;;;;;;21166745;28;20086;-57
2022/08/15 13:37:24;;;;;;;5.28;4.38;;;;;;;;;;21165799;28;20051;-56
2022/08/15 13:47:36;;;;;;;5.03;4.25;;;;;;;;;;21066792;27;20924;-55
2022/08/15 13:57:38;;;;;;;6.05;4.43;;;;;;;;;;21067326;28;20462;-58
2022/08/15 14:07:40;;;;;;;5.97;5.40;;;;;;;;;;21066754;28;20396;-56
2022/08/15 14:17:45;;;;;;;5.80;4.65;;;;;;;;;;21065016;28;20131;-58
2022/08/15 14:27:50;;;;;;;7.07;4.85;;;;;;;;;;21064423;28;20140;-56
2022/08/15 14:37:53;;;;;;;6.22;4.25;;;;;;;;;;21064659;28;21295;-58
2022/08/15 14:47:55;;;;;;;6.90;5.10;;;;;;;;;;21064558;28;20047;-59
2022/08/15 14:57:57;;;;;;;6.10;4.47;;;;;;;;;;21011676;28;20044;-57
2022/08/15 15:08:00;;;;;;;6.65;4.57;;;;;;;;;;21008408;28;20408;-58
2022/08/15 15:18:04;;;;;;;5.15;4.47;;;;;;;;;;21005871;28;20118;-59
2022/08/15 15:28:06;;;;;;;5.28;4.43;;;;;;;;;;21004002;28;20106;-57
2022/08/15 15:38:09;;;;;;;4.93;4.47;;;;;;;;;;21003038;28;20136;-57
2022/08/15 15:48:11;;;;;;;5.80;5.00;;;;;;;;;;21002464;28;20409;-61
2022/08/15 15:58:14;;;;;;;5.78;4.97;;;;;;;;;;21001247;28;20088;-59
2022/08/15 16:08:17;;;;;;;7.60;4.97;;;;;;;;;;20999935;28;20048;-58
2022/08/15 16:18:23;;;;;;;5.72;5.13;;;;;;;;;;20999742;28;20083;-58
2022/08/15 16:28:28;;;;;;;5.70;4.82;;;;;;;;;;21000227;28;20044;-57
2022/08/15 16:38:35;;;;;;;6.55;5.32;;;;;;;;;;20998913;28;20056;-57
2022/08/15 16:48:37;;;;;;;6.50;4.88;;;;;;;;;;20995675;28;20055;-56
2022/08/15 16:58:48;;;;;;;7.72;5.00;;;;;;;;;;20997108;28;20052;-57
2022/08/15 17:09:02;;;;;;;7.03;4.53;;;;;;;;;;20996215;28;20101;-57
2022/08/15 17:19:10;;;;;;;5.88;4.50;;;;;;;;;;20994691;28;20056;-58
2022/08/15 17:29:25;;;;;;;6.82;4.13;;;;;;;;;;20994836;28;20052;-56
2022/08/15 17:39:29;;;;;;;6.03;4.28;;;;;;;;;;20994699;28;20558;-56
2022/08/15 17:49:35;;;;;;;6.00;4.00;;;;;;;;;;20994212;28;20077;-57
2022/08/15 17:59:42;;;;;;;5.82;4.13;;;;;;;;;;20993750;28;20139;-57
2022/08/15 18:09:44;;;;;;;7.18;4.40;;;;;;;;;;20992935;28;20103;-56
2022/08/15 18:19:59;;;;;;;4.97;4.22;;;;;;;;;;20975046;28;20067;-56
2022/08/15 18:30:21;;;;;;;7.97;3.45;;;;;;;;;;21001553;28;20068;-58
2022/08/15 18:50:55;;;;;;;3.72;3.15;;;;;;;;;;20914800;28;20073;-57
2022/08/15 19:01:00;;;;;;;3.47;3.05;;;;;;;;;;20913569;28;20060;-55
2022/08/15 19:11:02;;;;;;;4.45;2.75;;;;;;;;;;20935515;28;20048;-58
2022/08/15 19:21:04;;;;;;;7.40;3.45;;;;;;;;;;21003949;28;20059;-58
2022/08/15 19:31:31;;;;;;;4.97;3.00;;;;;;;;;;21003470;28;20132;-60
2022/08/15 19:41:33;;;;;;;7.35;2.60;;;;;;;;;;20911209;28;20103;-56
2022/08/15 19:51:40;;;;;;;7.25;3.00;;;;;;;;;;20910514;28;20045;-59
2022/08/15 20:01:45;;;;;;;8.55;3.10;;;;;;;;;;20909335;28;20059;-56
2022/08/15 20:11:50;;;;;;;7.05;3.35;;;;;;;;;;20927735;28;20440;-53
2022/08/15 20:22:00;;;;;;;5.13;3.13;;;;;;;;;;21000586;28;20052;-59
2022/08/15 20:32:06;;;;;;;7.33;3.67;;;;;;;;;;21000179;28;20066;-57
2022/08/15 20:42:19;;;;;;;5.65;3.05;;;;;;;;;;20999895;28;20053;-59
2022/08/15 20:52:22;;;;;;;6.43;3.60;;;;;;;;;;20998420;28;20052;-57
2022/08/15 21:02:29;;;;;;;3.83;3.40;;;;;;;;;;20997597;28;20057;-61
2022/08/15 21:12:55;;;;;;;4.85;3.10;;;;;;;;;;20997252;28;20044;-57
2022/08/15 21:23:13;;;;;;;4.47;3.10;;;;;;;;;;20994103;28;20131;-58
2022/08/15 21:33:34;;;;;;;4.35;3.50;;;;;;;;;;20995237;28;20115;-55
2022/08/15 21:44:05;;;;;;;3.50;3.07;;;;;;;;;;20995036;28;20060;-57
2022/08/15 21:54:06;;;;;;;;;;;;;;;;;;20994810;28;20044;-58
2022/08/15 22:04:14;;;;;;;4.70;3.05;;;;;;;;;;21002482;28;19928;-59
2022/08/15 22:14:17;;;;;;;4.00;3.25;;;;;;;;;;21010979;28;20120;-56
2022/08/15 22:24:20;;;;;;;5.05;3.20;;;;;;;;;;21008527;28;20078;-56
2022/08/15 22:34:24;;;;;;;3.95;3.45;;;;;;;;;;21008926;28;20405;-55
2022/08/15 22:44:27;;;;;;;4.20;3.50;;;;;;;;;;21006676;28;20092;-58
2022/08/15 22:54:30;;;;;;;4.78;3.08;;;;;;;;;;21005186;28;20047;-55
2022/08/15 23:04:33;;;;;;;4.97;3.03;;;;;;;;;;21007000;28;20420;-53
2022/08/15 23:14:37;;;;;;;4.82;3.25;;;;;;;;;;21005212;28;20504;-55
2022/08/15 23:24:40;;;;;;;4.68;3.25;;;;;;;;;;21003746;28;20135;-56
2022/08/15 23:34:42;;;;;;;5.03;2.20;;;;;;;;;;21004861;28;20086;-54
2022/08/15 23:44:44;;;;;;;4.72;2.60;;;;;;;;;;21002988;28;20453;-57
2022/08/15 23:54:46;;;;;;;4.63;2.95;;;;;;;;;;21003454;28;20040;-57
